Consulta les dades en temps real de l'estació municipal de Seva
| Hora UTC | 02:30 |
|---|---|
| Temperatura | 8.9 ºC |
| Sòl 15 cm | 7.2 ºC |
| Humitat | 99.6 % |
| Pressió | 1014.3 hPa |
| Pluja | 0.0 mm |
| Velocitat vent | 3.3 km/h |
| Direcció vent | S |
| Radiació solar | 0.1 W/m² |
| Temperatura (ºC) | Humitat (%) | Pressió (hPa) | Velocitat vent (km/h) | Precipitació (mm) | Radiació solar (W/m²) | ||||||||||||||
|---|---|---|---|---|---|---|---|---|---|---|---|---|---|---|---|---|---|---|---|
| Hora UTC | Aire | Sòl 15 cm | Humitat | Pressió | Vel. | Dir. | Vel. Max | Dir. | Intent. màx 5 min. | Rad. Sol. | |||||||||
| 00:05 | 10.6 | 9.6 | 98.8 | 1015.1 | 1.2 | ENE | 1.2 | NE | 0.0 | 0.0 | |||||||||
| 00:10 | 10.4 | 9.2 | 98.8 | 1015.0 | 1.7 | ESE | 2.5 | ESE | 0.0 | 0.1 | |||||||||
| 00:15 | 10.2 | 8.9 | 98.8 | 1014.9 | 1.9 | E | 2.8 | E | 0.0 | 0.1 | |||||||||
| 00:20 | 10.0 | 8.6 | 98.8 | 1014.8 | 0.1 | ESE | 1.4 | ESE | 0.0 | 0.0 | |||||||||
| 00:25 | 9.8 | 8.3 | 98.8 | 1014.8 | 0.3 | SW | 1.4 | SW | 0.0 | 0.1 | |||||||||
| 00:30 | 9.7 | 8.0 | 98.9 | 1014.7 | 0.0 | NNE | 0.0 | WSW | 0.0 | 0.1 | |||||||||
| 00:35 | 9.5 | 7.9 | 98.9 | 1014.7 | 0.9 | SE | 2.1 | SE | 0.0 | 0.0 | |||||||||
| 00:40 | 9.4 | 7.9 | 99.0 | 1014.6 | 2.4 | SE | 3.2 | SE | 0.0 | 0.1 | |||||||||
| 00:45 | 9.4 | 8.1 | 99.2 | 1014.4 | 2.6 | SE | 3.2 | SE | 0.0 | 0.1 | |||||||||
| 00:50 | 9.4 | 8.3 | 99.3 | 1014.4 | 2.3 | SE | 3.2 | SE | 0.0 | 0.1 | |||||||||
| 00:55 | 9.5 | 8.5 | 99.4 | 1014.4 | 2.2 | SE | 3.2 | SE | 0.0 | 0.1 | |||||||||
| 01:00 | 9.6 | 8.7 | 99.4 | 1014.4 | 1.9 | SE | 3.9 | ESE | 0.0 | 0.0 | |||||||||
| 01:05 | 9.7 | 8.8 | 99.4 | 1014.3 | 3.3 | SE | 4.6 | SE | 0.0 | 0.1 | |||||||||
| 01:10 | 9.8 | 8.9 | 99.4 | 1014.3 | 3.0 | SE | 6.0 | SE | 0.0 | 0.0 | |||||||||
| 01:15 | 9.9 | 8.9 | 99.4 | 1014.2 | 4.7 | SE | 8.1 | SSE | 0.0 | 0.0 | |||||||||
| 01:20 | 9.8 | 8.8 | 99.4 | 1014.1 | 5.6 | SE | 8.8 | SE | 0.0 | 0.1 | |||||||||
| 01:25 | 9.8 | 8.7 | 99.3 | 1014.1 | 4.6 | SE | 7.8 | ESE | 0.0 | 0.1 | |||||||||
| 01:30 | 9.7 | 8.5 | 99.3 | 1014.1 | 3.4 | SSE | 6.7 | SE | 0.0 | 0.0 | |||||||||
| 01:35 | 9.8 | 8.4 | 99.4 | 1014.1 | 3.5 | S | 6.0 | SSE | 0.0 | 0.0 | |||||||||
| 01:40 | 9.6 | 8.2 | 99.2 | 1014.1 | 4.0 | SSW | 6.4 | S | 0.0 | 0.1 | |||||||||
| 01:45 | 9.5 | 8.1 | 99.3 | 1014.1 | 3.8 | S | 6.0 | SSW | 0.0 | 0.1 | |||||||||
| 01:50 | 9.4 | 7.8 | 99.2 | 1014.2 | 2.5 | S | 4.9 | S | 0.0 | 0.0 | |||||||||
| 01:55 | 9.2 | 7.5 | 99.2 | 1014.2 | 1.3 | SSW | 6.4 | SSW | 0.0 | 0.1 | |||||||||
| 02:00 | 9.1 | 7.4 | 99.4 | 1014.3 | 2.2 | NNW | 4.9 | NNW | 0.0 | 0.1 | |||||||||
| 02:05 | 9.0 | 7.5 | 99.3 | 1014.3 | 3.3 | NNW | 4.9 | NNW | 0.0 | 0.1 | |||||||||
| 02:10 | 9.0 | 7.4 | 99.4 | 1014.3 | 2.0 | SE | 4.9 | S | 0.0 | 0.1 | |||||||||
| 02:15 | 8.8 | 7.3 | 99.3 | 1014.3 | 3.1 | SSE | 4.9 | SSE | 0.0 | 0.1 | |||||||||
| 02:20 | 8.8 | 7.2 | 99.5 | 1014.3 | 4.1 | S | 6.7 | S | 0.0 | 0.1 | |||||||||
| 02:25 | 8.9 | 7.2 | 99.6 | 1014.3 | 3.0 | S | 4.9 | S | 0.0 | 0.1 | |||||||||
| 02:30 | 8.9 | 7.2 | 99.6 | 1014.3 | 3.3 | S | 5.3 | S | 0.0 | 0.1 | |||||||||
| Màxima | 10.6 | 9.6 | 99.6 | 1015.1 | 5.6 | SE | 8.8 | SE | 0.0 | 0.1 | |||||||||
| Mínima | 8.8 | 7.2 | 98.8 | 1014.1 | |||||||||||||||
| Total | 0.0 | ||||||||||||||||||